LFMU/BZR METAR and TAF weather

Enter ICAO airport designator
Station Type Date Time Source
LFMU METAR 2019/10/23 12:30 UTC NOAA

LFMU 231230Z AUTO 04014KT 9999 -RA FEW027/// SCT043/// BKN096/// ///TCU 16/15 Q1006 BECMG 15015KT SCT005 BKN030


Station Type Date Time Source
LFMU Decoded METAR 2019/10/23 12:30 UTC NOAA

Beziers / Vias, France (LFMU) 43-19N 003-21E
Oct 23, 2019 - 08:30 AM EDT / 2019.10.23 1230 UTC
Wind: from the NE (040 degrees) at 16 MPH (14 KT):0
Visibility: greater than 7 mile(s):0
Sky conditions: mostly cloudy
Weather: light rain; Towering cumulus clouds observed
Temperature: 60 F (16 C)
Dew Point: 59 F (15 C)
Relative Humidity: 93%
Pressure (altimeter): 29.71 in. Hg (1006 hPa)
ob: LFMU 231230Z AUTO 04014KT 9999 -RA FEW027/// SCT043/// BKN096/// ///TCU 16/15 Q1006 BECMG 15015KT SCT005 BKN030
cycle: 12

Station Type Date Time Source
LFMU TAF 2019/10/23 09:23 UTC NOAA

TAF LFMU 230800Z 2309/2409 07015G25KT 6000 BKN005 SCT050CB
TEMPO 2309/2312 VRB10G35KT 1500 TSRA BKN005 BKN010CB PROB30
TEMPO 2309/2312 TSRAGR
BECMG 2312/2314 15015KT SCT005 BKN030
BECMG 2318/2321 VRB05KT 9999 NSW NSC

Example: see airport list